createdAt,value
2022-11-27T00:01:16.639Z,58.51
2022-11-27T00:03:44.254Z,57.78
2022-11-27T00:06:15.828Z,58.34
2022-11-27T00:08:43.656Z,59.31
2022-11-27T00:11:12.109Z,58.54
2022-11-27T00:13:39.432Z,58.55
2022-11-27T00:16:06.882Z,58.44
2022-11-27T00:18:34.737Z,58.28
2022-11-27T00:21:11.721Z,58.15
2022-11-27T00:23:39.450Z,58.28
2022-11-27T00:26:07.076Z,57.98
2022-11-27T00:28:34.408Z,57.23
2022-11-27T00:31:06.477Z,57.01
2022-11-27T00:33:33.847Z,56.62
2022-11-27T00:36:04.780Z,56.15
2022-11-27T00:38:37.280Z,56.34
2022-11-27T00:41:09.384Z,55.76
2022-11-27T00:43:43.965Z,55.56
2022-11-27T00:46:13.096Z,55.43
2022-11-27T00:48:40.791Z,55.18
2022-11-27T00:51:08.898Z,55.55
2022-11-27T00:53:36.227Z,55.16
2022-11-27T00:56:03.717Z,54.86
2022-11-27T00:58:30.944Z,54.72
2022-11-27T01:00:59.147Z,55.09
2022-11-27T01:03:26.896Z,55.08
2022-11-27T01:05:54.088Z,54.74
2022-11-27T01:08:21.566Z,54.59
2022-11-27T01:10:54.893Z,54.59
2022-11-27T01:13:26.387Z,54.59
2022-11-27T01:16:03.111Z,55.60
2022-11-27T01:18:30.485Z,55.97
2022-11-27T01:20:58.053Z,55.65
2022-11-27T01:23:25.410Z,55.24
2022-11-27T01:25:55.640Z,54.73
2022-11-27T01:28:24.084Z,55.12
2022-11-27T01:30:51.704Z,54.88
2022-11-27T01:33:19.071Z,54.88
2022-11-27T01:35:53.702Z,54.93
2022-11-27T01:38:21.483Z,54.61
2022-11-27T01:40:49.091Z,54.75
2022-11-27T01:43:16.436Z,55.15
2022-11-27T01:45:44.284Z,54.96
2022-11-27T01:48:11.938Z,55.28
2022-11-27T01:50:39.246Z,55.07
2022-11-27T01:53:07.916Z,54.83
2022-11-27T01:55:43.279Z,54.78
2022-11-27T01:58:11.532Z,55.03
2022-11-27T02:00:39.173Z,55.23
2022-11-27T02:03:06.874Z,55.04
2022-11-27T02:05:34.365Z,55.16
2022-11-27T02:08:03.490Z,55.30
2022-11-27T02:10:42.996Z,55.43
2022-11-27T02:13:13.269Z,55.58
2022-11-27T02:16:17.828Z,55.36
2022-11-27T02:18:56.260Z,55.46
2022-11-27T02:21:29.681Z,55.37
2022-11-27T02:24:29.647Z,55.45
2022-11-27T02:27:26.361Z,55.44
2022-11-27T02:29:54.897Z,55.43
2022-11-27T02:32:25.024Z,55.76
2022-11-27T02:34:57.572Z,55.65
2022-11-27T02:37:31.324Z,55.31
2022-11-27T02:40:02.958Z,55.15
2022-11-27T02:42:31.768Z,55.26
2022-11-27T02:45:00.364Z,55.66
2022-11-27T02:47:28.413Z,55.12
2022-11-27T02:49:57.157Z,55.00
2022-11-27T02:52:27.426Z,54.91
2022-11-27T02:54:55.560Z,55.28
2022-11-27T02:57:23.441Z,55.38
2022-11-27T02:59:50.618Z,54.57
2022-11-27T03:02:20.257Z,55.03
2022-11-27T03:04:49.504Z,54.31
2022-11-27T03:07:18.477Z,54.01
2022-11-27T03:09:46.999Z,54.00
2022-11-27T03:12:14.497Z,54.30
2022-11-27T03:14:42.086Z,55.15
2022-11-27T03:17:28.146Z,54.40
2022-11-27T03:20:00.240Z,54.42
2022-11-27T03:22:28.042Z,54.58
2022-11-27T03:24:55.632Z,54.08
2022-11-27T03:27:32.898Z,53.90
2022-11-27T03:30:01.250Z,53.65
2022-11-27T03:32:28.675Z,54.12
2022-11-27T03:34:55.850Z,54.19
2022-11-27T03:37:23.445Z,53.90
2022-11-27T03:39:51.044Z,53.66
2022-11-27T03:42:28.783Z,53.85
2022-11-27T03:45:14.622Z,55.04
2022-11-27T03:47:54.051Z,55.11
2022-11-27T03:50:40.455Z,55.26
2022-11-27T03:53:19.940Z,55.52
2022-11-27T03:56:10.026Z,55.08
2022-11-27T03:58:40.539Z,55.12
2022-11-27T04:01:09.199Z,55.44
2022-11-27T04:03:36.947Z,54.74
2022-11-27T04:06:04.386Z,54.64
2022-11-27T04:08:31.576Z,54.73
2022-11-27T04:10:59.032Z,54.71
2022-11-27T04:13:26.216Z,54.68
2022-11-27T04:15:53.522Z,54.68
2022-11-27T04:18:21.092Z,54.51
2022-11-27T04:20:48.293Z,54.38
2022-11-27T04:23:15.541Z,54.14
2022-11-27T04:25:43.041Z,54.64
2022-11-27T04:28:10.219Z,54.22
2022-11-27T04:30:37.479Z,54.73
2022-11-27T04:33:05.033Z,54.47
2022-11-27T04:35:32.277Z,54.70
2022-11-27T04:37:59.574Z,54.99
2022-11-27T04:40:27.213Z,54.84
2022-11-27T04:42:54.498Z,55.36
2022-11-27T04:45:21.667Z,54.79
2022-11-27T04:47:49.131Z,54.83
2022-11-27T04:50:16.338Z,54.98
2022-11-27T04:52:43.591Z,54.24
2022-11-27T04:55:11.028Z,55.27
2022-11-27T04:57:38.240Z,55.26
2022-11-27T05:00:05.980Z,56.74
2022-11-27T05:02:33.505Z,55.79
2022-11-27T05:05:00.701Z,55.48
2022-11-27T05:07:28.006Z,55.08
2022-11-27T05:09:55.567Z,54.88
2022-11-27T05:12:22.792Z,54.79
2022-11-27T05:14:50.071Z,55.67
2022-11-27T05:17:17.584Z,55.27
2022-11-27T05:19:44.756Z,55.24
2022-11-27T05:22:11.958Z,54.90
2022-11-27T05:24:39.616Z,56.17
2022-11-27T05:27:06.981Z,55.86
2022-11-27T05:29:34.322Z,55.67
2022-11-27T05:32:01.804Z,55.87
2022-11-27T05:34:29.024Z,55.87
2022-11-27T05:36:56.225Z,55.78
2022-11-27T05:39:23.915Z,55.81
2022-11-27T05:41:51.111Z,55.73
2022-11-27T05:44:18.307Z,55.33
2022-11-27T05:46:45.884Z,55.33
2022-11-27T05:49:13.820Z,56.35
2022-11-27T05:51:41.971Z,55.93
2022-11-27T05:54:11.622Z,55.85
2022-11-27T05:56:38.890Z,55.42
2022-11-27T05:59:06.098Z,55.57
2022-11-27T06:01:33.609Z,55.49
2022-11-27T06:04:01.153Z,55.47
2022-11-27T06:06:28.475Z,56.77
2022-11-27T06:08:55.695Z,56.93
2022-11-27T06:11:23.667Z,56.19
2022-11-27T06:13:50.882Z,56.41
2022-11-27T06:16:22.246Z,56.74
2022-11-27T06:18:51.090Z,56.91
2022-11-27T06:21:18.495Z,56.58
2022-11-27T06:23:45.886Z,56.66
2022-11-27T06:26:17.431Z,55.60
2022-11-27T06:28:44.900Z,55.43
2022-11-27T06:31:17.855Z,54.82
2022-11-27T06:33:46.164Z,54.99
2022-11-27T06:36:13.673Z,54.90
2022-11-27T06:38:40.890Z,55.60
2022-11-27T06:41:08.971Z,55.60
2022-11-27T06:43:36.488Z,55.31
2022-11-27T06:46:04.467Z,55.47
2022-11-27T06:48:32.109Z,56.02
2022-11-27T06:51:00.752Z,55.74
2022-11-27T06:53:28.425Z,55.37
2022-11-27T06:55:55.810Z,55.47
2022-11-27T06:58:27.781Z,55.80
2022-11-27T07:00:59.057Z,56.06
2022-11-27T07:03:26.702Z,56.56
2022-11-27T07:05:54.167Z,55.46
2022-11-27T07:08:22.287Z,56.28
2022-11-27T07:10:49.818Z,55.42
2022-11-27T07:13:17.048Z,55.37
2022-11-27T07:15:44.306Z,54.88
2022-11-27T07:18:11.933Z,54.46
2022-11-27T07:20:39.133Z,54.16
2022-11-27T07:23:06.382Z,54.99
2022-11-27T07:25:33.852Z,55.21
2022-11-27T07:28:01.888Z,54.90
2022-11-27T07:30:29.150Z,54.60
2022-11-27T07:32:56.648Z,54.71
2022-11-27T07:35:23.884Z,54.63
2022-11-27T07:37:51.028Z,54.28
2022-11-27T07:40:18.608Z,54.29
2022-11-27T07:42:45.820Z,54.13
2022-11-27T07:45:13.035Z,54.83
2022-11-27T07:47:40.523Z,54.96
2022-11-27T07:50:08.525Z,53.66
2022-11-27T07:52:41.154Z,53.21
2022-11-27T07:55:09.988Z,53.32
2022-11-27T07:57:37.210Z,54.73
2022-11-27T08:00:05.087Z,53.33
2022-11-27T08:02:32.122Z,52.93
2022-11-27T08:04:59.710Z,52.71
2022-11-27T08:07:27.755Z,52.47
2022-11-27T08:09:54.967Z,51.88
2022-11-27T08:12:23.218Z,53.03
2022-11-27T08:14:50.558Z,53.75
2022-11-27T08:17:17.766Z,52.34
2022-11-27T08:19:45.266Z,51.91
2022-11-27T08:22:13.084Z,52.30
2022-11-27T08:24:42.530Z,52.43
2022-11-27T08:27:10.430Z,52.20
2022-11-27T08:29:37.980Z,52.16
2022-11-27T08:32:05.522Z,51.97
2022-11-27T08:34:33.115Z,51.78
2022-11-27T08:37:00.346Z,51.47
2022-11-27T08:39:27.620Z,51.85
2022-11-27T08:41:55.134Z,51.35
2022-11-27T08:44:22.412Z,53.28
2022-11-27T08:46:49.685Z,54.37
2022-11-27T08:49:17.168Z,55.09
2022-11-27T08:51:44.414Z,54.62
2022-11-27T08:54:11.746Z,56.97
2022-11-27T08:56:39.223Z,55.42
2022-11-27T08:59:06.416Z,55.89
2022-11-27T09:01:33.671Z,57.55
2022-11-27T09:04:01.371Z,56.75
2022-11-27T09:06:29.523Z,55.86
2022-11-27T09:08:57.243Z,55.91
2022-11-27T09:11:24.766Z,54.82
2022-11-27T09:13:52.003Z,53.81
2022-11-27T09:16:20.135Z,54.25
2022-11-27T09:18:48.737Z,53.08
2022-11-27T09:21:16.471Z,52.54
2022-11-27T09:23:43.754Z,52.22
2022-11-27T09:26:12.563Z,51.70
2022-11-27T09:28:40.212Z,52.20
2022-11-27T09:31:08.302Z,53.10
2022-11-27T09:33:36.552Z,52.38
2022-11-27T09:36:08.081Z,51.74
2022-11-27T09:38:35.892Z,51.92
2022-11-27T09:41:07.138Z,50.89
2022-11-27T09:43:34.987Z,50.71
2022-11-27T09:46:08.303Z,50.80
2022-11-27T09:48:37.803Z,50.42
2022-11-27T09:51:14.057Z,50.15
2022-11-27T09:53:47.978Z,49.80
2022-11-27T09:56:16.561Z,49.10
2022-11-27T09:58:45.185Z,49.38
2022-11-27T10:01:16.583Z,49.21
2022-11-27T10:03:44.903Z,49.00
2022-11-27T10:06:28.096Z,48.77
2022-11-27T10:09:14.424Z,49.13
2022-11-27T10:11:48.491Z,49.74
2022-11-27T10:14:34.740Z,49.63
2022-11-27T10:17:08.271Z,49.33
2022-11-27T10:19:38.950Z,48.41
2022-11-27T10:22:21.578Z,48.34
2022-11-27T10:25:19.171Z,48.48
2022-11-27T10:27:49.382Z,47.90
2022-11-27T10:30:17.842Z,48.54
2022-11-27T10:33:01.249Z,48.05
2022-11-27T10:35:29.812Z,48.30
2022-11-27T10:37:59.744Z,47.98
2022-11-27T10:40:40.350Z,48.87
2022-11-27T10:43:07.604Z,47.45
2022-11-27T10:45:50.275Z,47.56
2022-11-27T10:48:17.564Z,48.54
2022-11-27T10:50:46.088Z,48.16
2022-11-27T10:53:33.062Z,47.60
2022-11-27T10:56:15.150Z,48.05
2022-11-27T10:58:53.109Z,49.33
2022-11-27T11:01:21.082Z,47.78
2022-11-27T11:03:48.572Z,47.95
2022-11-27T11:06:21.415Z,47.81
2022-11-27T11:09:07.098Z,47.31
2022-11-27T11:11:34.853Z,47.93
2022-11-27T11:14:02.771Z,47.18
2022-11-27T11:16:35.679Z,47.49
2022-11-27T11:19:03.466Z,48.89
2022-11-27T11:21:41.251Z,49.71
2022-11-27T11:24:28.183Z,49.65
2022-11-27T11:26:56.435Z,52.79
2022-11-27T11:29:26.911Z,53.11
2022-11-27T11:31:55.131Z,52.02
2022-11-27T11:34:29.386Z,50.90
2022-11-27T11:37:05.014Z,53.25
2022-11-27T11:39:33.763Z,52.56
2022-11-27T11:42:01.283Z,52.99
2022-11-27T11:44:33.355Z,52.61
2022-11-27T11:47:00.862Z,53.19
2022-11-27T11:49:28.366Z,54.34
2022-11-27T11:52:04.249Z,53.42
2022-11-27T11:54:31.712Z,54.81
2022-11-27T11:56:59.536Z,53.88
2022-11-27T11:59:43.765Z,56.41
2022-11-27T12:02:31.533Z,55.33
2022-11-27T12:05:06.200Z,53.20
2022-11-27T12:07:39.616Z,53.20
2022-11-27T12:10:14.471Z,52.68
2022-11-27T12:13:00.646Z,51.98
2022-11-27T12:15:32.480Z,52.84
2022-11-27T12:18:18.558Z,54.76
2022-11-27T12:21:01.203Z,53.36
2022-11-27T12:23:40.776Z,52.77
2022-11-27T12:26:14.208Z,53.69
2022-11-27T12:28:59.583Z,53.41
2022-11-27T12:31:31.574Z,54.62
2022-11-27T12:34:00.888Z,56.09
2022-11-27T12:36:48.707Z,56.48
2022-11-27T12:39:20.434Z,57.25
2022-11-27T12:42:06.613Z,57.85
2022-11-27T12:44:33.828Z,56.91
2022-11-27T12:47:10.057Z,55.57
2022-11-27T12:49:37.295Z,54.90
2022-11-27T12:52:10.509Z,55.40
2022-11-27T12:54:37.700Z,55.93
2022-11-27T12:57:07.414Z,55.08
2022-11-27T12:59:49.153Z,53.76
2022-11-27T13:02:27.863Z,53.39
2022-11-27T13:05:05.833Z,53.43
2022-11-27T13:07:45.579Z,52.25
2022-11-27T13:10:15.408Z,52.83
2022-11-27T13:12:44.861Z,52.15
2022-11-27T13:15:35.380Z,51.97
2022-11-27T13:18:22.058Z,52.96
2022-11-27T13:20:52.321Z,50.81
2022-11-27T13:23:20.666Z,50.88
2022-11-27T13:25:51.963Z,50.72
2022-11-27T13:28:36.211Z,49.88
2022-11-27T13:31:03.397Z,50.11
2022-11-27T13:33:34.163Z,51.01
2022-11-27T13:36:03.465Z,50.55
2022-11-27T13:38:33.445Z,50.83
2022-11-27T13:41:05.668Z,49.73
2022-11-27T13:43:43.220Z,50.32
2022-11-27T13:46:18.253Z,53.61
2022-11-27T13:49:05.234Z,52.71
2022-11-27T13:51:33.508Z,53.26
2022-11-27T13:54:11.069Z,51.04
2022-11-27T13:56:38.503Z,56.65
2022-11-27T13:59:24.963Z,56.01
2022-11-27T14:01:59.344Z,54.66
2022-11-27T14:04:27.486Z,53.71
2022-11-27T14:07:00.238Z,51.54
2022-11-27T14:09:57.589Z,51.81
2022-11-27T14:12:30.343Z,51.87
2022-11-27T14:15:00.770Z,53.81
2022-11-27T14:17:33.711Z,55.12
2022-11-27T14:20:05.979Z,53.49
2022-11-27T14:22:44.226Z,55.17
2022-11-27T14:25:24.156Z,55.82
2022-11-27T14:28:09.613Z,53.29
2022-11-27T14:30:47.618Z,53.59
2022-11-27T14:33:25.503Z,53.19
2022-11-27T14:35:54.453Z,54.05
2022-11-27T14:38:22.220Z,54.51
2022-11-27T14:40:49.894Z,53.94
2022-11-27T14:43:18.388Z,52.76
2022-11-27T14:45:46.778Z,52.52
2022-11-27T14:48:24.005Z,53.10
2022-11-27T14:50:52.260Z,55.77
2022-11-27T14:53:20.114Z,54.44
2022-11-27T14:55:51.312Z,53.17
2022-11-27T14:58:20.219Z,56.23
2022-11-27T15:00:51.839Z,59.50
2022-11-27T15:03:19.526Z,55.65
2022-11-27T15:05:53.636Z,57.79
2022-11-27T15:08:21.365Z,56.91
2022-11-27T15:10:48.917Z,59.88
2022-11-27T15:13:25.763Z,56.05
2022-11-27T15:16:03.999Z,54.66
2022-11-27T15:18:32.301Z,53.53
2022-11-27T15:20:59.970Z,55.67
2022-11-27T15:23:29.111Z,57.76
2022-11-27T15:25:59.327Z,60.40
2022-11-27T15:28:45.817Z,57.39
2022-11-27T15:31:32.755Z,55.03
2022-11-27T15:34:00.332Z,55.31
2022-11-27T15:36:32.414Z,57.04
2022-11-27T15:39:32.451Z,57.04
2022-11-27T15:42:00.936Z,57.14
2022-11-27T15:44:29.396Z,55.05
2022-11-27T15:46:57.108Z,54.61
2022-11-27T15:49:24.387Z,57.06
2022-11-27T15:51:52.108Z,58.79
2022-11-27T15:54:19.435Z,55.67
2022-11-27T15:56:47.882Z,54.88
2022-11-27T15:59:15.673Z,54.70
2022-11-27T16:01:43.265Z,58.40
2022-11-27T16:04:10.779Z,57.43
2022-11-27T16:06:38.366Z,56.62
2022-11-27T16:09:05.863Z,56.74
2022-11-27T16:11:33.415Z,59.22
2022-11-27T16:14:00.691Z,57.93
2022-11-27T16:16:27.977Z,56.27
2022-11-27T16:19:02.003Z,55.49
2022-11-27T16:21:30.159Z,56.73
2022-11-27T16:24:02.141Z,55.12
2022-11-27T16:26:29.742Z,56.41
2022-11-27T16:28:57.166Z,55.97
2022-11-27T16:31:25.164Z,56.65
2022-11-27T16:33:52.487Z,55.84
2022-11-27T16:36:20.543Z,55.99
2022-11-27T16:38:48.508Z,55.51
2022-11-27T16:41:17.061Z,56.63
2022-11-27T16:43:45.714Z,58.46
2022-11-27T16:46:17.381Z,57.17
2022-11-27T16:48:44.893Z,56.83
2022-11-27T16:51:20.170Z,55.89
2022-11-27T16:53:48.712Z,56.85
2022-11-27T16:56:17.475Z,57.70
2022-11-27T16:58:45.567Z,59.93
2022-11-27T17:01:14.429Z,56.96
2022-11-27T17:03:42.151Z,59.82
2022-11-27T17:06:10.653Z,59.56
2022-11-27T17:08:38.124Z,56.22
2022-11-27T17:11:09.624Z,60.33
2022-11-27T17:13:36.857Z,57.58
2022-11-27T17:16:05.065Z,56.73
2022-11-27T17:18:33.329Z,59.75
2022-11-27T17:21:02.554Z,60.04
2022-11-27T17:23:29.957Z,57.30
2022-11-27T17:25:58.259Z,56.88
2022-11-27T17:28:25.565Z,56.39
2022-11-27T17:30:52.991Z,56.88
2022-11-27T17:33:20.999Z,56.47
2022-11-27T17:35:48.335Z,56.13
2022-11-27T17:38:15.600Z,60.46
2022-11-27T17:40:43.793Z,58.76
2022-11-27T17:43:11.268Z,56.81
2022-11-27T17:45:41.918Z,58.38
2022-11-27T17:48:10.132Z,56.86
2022-11-27T17:50:37.414Z,56.74
2022-11-27T17:53:05.018Z,56.49
2022-11-27T17:55:33.063Z,59.71
2022-11-27T17:58:00.457Z,58.46
2022-11-27T18:00:28.334Z,59.43
2022-11-27T18:02:55.903Z,58.57
2022-11-27T18:05:23.965Z,57.50
2022-11-27T18:07:51.450Z,56.88
2022-11-27T18:10:19.392Z,56.88
2022-11-27T18:12:46.848Z,58.87
2022-11-27T18:15:14.449Z,57.08
2022-11-27T18:17:42.055Z,57.71
2022-11-27T18:20:09.509Z,57.07
2022-11-27T18:22:36.828Z,56.59
2022-11-27T18:25:05.055Z,56.42
2022-11-27T18:27:33.502Z,60.13
2022-11-27T18:30:00.735Z,62.42
2022-11-27T18:32:28.513Z,60.04
2022-11-27T18:34:55.767Z,61.77
2022-11-27T18:37:23.575Z,58.28
2022-11-27T18:39:51.479Z,58.55
2022-11-27T18:42:19.293Z,60.32
2022-11-27T18:44:46.766Z,57.55
2022-11-27T18:47:15.180Z,60.13
2022-11-27T18:49:43.365Z,58.85
2022-11-27T18:52:11.026Z,58.99
2022-11-27T18:54:38.736Z,58.49
2022-11-27T18:57:07.490Z,56.43
2022-11-27T18:59:34.799Z,56.16
2022-11-27T19:02:02.769Z,56.98
2022-11-27T19:04:30.128Z,57.12
2022-11-27T19:06:57.612Z,55.64
2022-11-27T19:09:25.420Z,55.96
2022-11-27T19:11:53.503Z,56.30
2022-11-27T19:14:20.758Z,56.17
2022-11-27T19:16:48.617Z,55.83
2022-11-27T19:22:07.277Z,56.86
2022-11-27T19:24:34.706Z,56.45
2022-11-27T19:27:02.040Z,57.60
2022-11-27T19:29:30.483Z,56.88
2022-11-27T19:31:58.959Z,57.49
2022-11-27T19:34:26.805Z,57.25
2022-11-27T19:36:54.617Z,57.19
2022-11-27T19:39:22.207Z,58.17
2022-11-27T19:41:49.744Z,59.08
2022-11-27T19:44:17.829Z,57.76
2022-11-27T19:46:46.455Z,57.47
2022-11-27T19:49:15.036Z,56.46
2022-11-27T19:51:42.935Z,56.35
2022-11-27T19:54:13.111Z,61.10
2022-11-27T19:56:42.257Z,58.50
2022-11-27T19:59:10.511Z,63.61
2022-11-27T20:01:40.270Z,62.25
2022-11-27T20:04:09.679Z,63.76
2022-11-27T20:06:37.084Z,60.23
2022-11-27T20:09:04.992Z,67.54
2022-11-27T20:11:35.194Z,64.87
2022-11-27T20:14:04.671Z,62.68
2022-11-27T20:16:32.969Z,61.15
2022-11-27T20:19:01.613Z,62.20
2022-11-27T20:21:28.976Z,61.51
2022-11-27T20:23:57.645Z,60.46
2022-11-27T20:26:26.173Z,59.23
2022-11-27T20:28:54.224Z,62.27
2022-11-27T20:31:24.232Z,59.96
2022-11-27T20:33:52.476Z,62.48
2022-11-27T20:36:21.318Z,62.74
2022-11-27T20:38:49.281Z,65.12
2022-11-27T20:41:17.888Z,59.43
2022-11-27T20:43:45.305Z,57.47
2022-11-27T20:46:13.668Z,58.66
2022-11-27T20:48:41.079Z,57.87
2022-11-27T20:51:09.377Z,58.49
2022-11-27T20:53:38.015Z,58.11
2022-11-27T20:56:06.009Z,57.66
2022-11-27T20:58:37.767Z,58.31
2022-11-27T21:01:15.409Z,61.12
2022-11-27T21:03:43.482Z,57.73
2022-11-27T21:06:11.980Z,58.41
2022-11-27T21:08:39.274Z,57.38
2022-11-27T21:11:09.598Z,56.67
2022-11-27T21:13:37.426Z,56.75
2022-11-27T21:16:07.222Z,58.70
2022-11-27T21:18:34.458Z,57.70
2022-11-27T21:21:06.822Z,57.15
2022-11-27T21:23:34.109Z,58.44
2022-11-27T21:26:01.696Z,58.80
2022-11-27T21:28:30.101Z,57.43
2022-11-27T21:31:08.424Z,58.24
2022-11-27T21:33:36.400Z,56.83
2022-11-27T21:36:03.960Z,55.89
2022-11-27T21:38:31.177Z,58.14
2022-11-27T21:40:58.695Z,58.30
2022-11-27T21:43:25.941Z,56.21
2022-11-27T21:45:53.823Z,59.05
2022-11-27T21:48:21.714Z,58.36
2022-11-27T21:50:49.032Z,56.82
2022-11-27T21:53:16.999Z,55.96
2022-11-27T21:55:44.503Z,55.75
2022-11-27T21:58:12.030Z,55.03
2022-11-27T22:00:39.714Z,56.75
2022-11-27T22:03:07.162Z,56.75
2022-11-27T22:05:34.378Z,57.71
2022-11-27T22:08:01.670Z,55.21
2022-11-27T22:10:29.227Z,55.25
2022-11-27T22:12:56.590Z,54.53
2022-11-27T22:15:23.905Z,54.32
2022-11-27T22:17:51.595Z,53.98
2022-11-27T22:20:18.848Z,53.88
2022-11-27T22:22:46.807Z,54.38
2022-11-27T22:25:14.882Z,54.83
2022-11-27T22:27:42.296Z,53.90
2022-11-27T22:30:09.716Z,55.18
2022-11-27T22:32:37.384Z,55.17
2022-11-27T22:35:04.780Z,56.26
2022-11-27T22:37:32.367Z,54.80
2022-11-27T22:39:59.999Z,54.36
2022-11-27T22:42:27.240Z,53.98
2022-11-27T22:44:54.518Z,53.73
2022-11-27T22:47:22.016Z,53.41
2022-11-27T22:49:49.256Z,53.42
2022-11-27T22:52:16.688Z,53.10
2022-11-27T22:54:44.401Z,52.72
2022-11-27T22:57:13.965Z,52.76
2022-11-27T22:59:41.203Z,53.52
2022-11-27T23:02:09.676Z,53.47
2022-11-27T23:04:37.174Z,54.39
2022-11-27T23:07:04.944Z,53.61
2022-11-27T23:09:32.627Z,53.66
2022-11-27T23:11:59.818Z,53.57
2022-11-27T23:14:27.339Z,53.92
2022-11-27T23:16:54.955Z,53.68
2022-11-27T23:19:22.272Z,54.89
2022-11-27T23:21:49.563Z,54.60
2022-11-27T23:24:17.039Z,55.38
2022-11-27T23:26:44.480Z,55.41
2022-11-27T23:29:11.900Z,55.12
2022-11-27T23:31:39.564Z,55.35
2022-11-27T23:34:07.954Z,55.98
2022-11-27T23:36:35.237Z,55.50
2022-11-27T23:39:04.159Z,57.43
2022-11-27T23:41:31.373Z,56.64
2022-11-27T23:43:58.684Z,56.46
2022-11-27T23:46:26.876Z,56.04
2022-11-27T23:48:54.810Z,58.41
2022-11-27T23:51:23.663Z,56.65
2022-11-27T23:53:51.440Z,56.80
2022-11-27T23:56:21.409Z,56.31
2022-11-27T23:58:48.632Z,56.52
